sensor_id;sensor_type;location;lat;lon;timestamp;temperature;humidity
17728;DHT22;8984;49.268;12.302;2023-07-20T00:02:29;20.00;99.90
17728;DHT22;8984;49.268;12.302;2023-07-20T00:04:58;19.80;99.90
17728;DHT22;8984;49.268;12.302;2023-07-20T00:07:30;19.80;99.90
17728;DHT22;8984;49.268;12.302;2023-07-20T00:10:05;19.80;99.90
17728;DHT22;8984;49.268;12.302;2023-07-20T00:12:38;19.70;99.90
17728;DHT22;8984;49.268;12.302;2023-07-20T00:17:55;19.70;99.90
17728;DHT22;8984;49.268;12.302;2023-07-20T00:20:24;19.70;99.90
17728;DHT22;8984;49.268;12.302;2023-07-20T00:23:12;19.70;99.90
17728;DHT22;8984;49.268;12.302;2023-07-20T00:25:39;19.70;99.90
17728;DHT22;8984;49.268;12.302;2023-07-20T00:28:07;19.70;99.90
17728;DHT22;8984;49.268;12.302;2023-07-20T00:30:51;19.70;99.90
17728;DHT22;8984;49.268;12.302;2023-07-20T00:33:34;19.70;99.90
17728;DHT22;8984;49.268;12.302;2023-07-20T00:36:13;19.70;99.90
17728;DHT22;8984;49.268;12.302;2023-07-20T00:38:44;19.50;99.90
17728;DHT22;8984;49.268;12.302;2023-07-20T00:41:14;19.40;99.90
17728;DHT22;8984;49.268;12.302;2023-07-20T00:43:40;19.40;99.90
17728;DHT22;8984;49.268;12.302;2023-07-20T00:46:08;19.30;99.90
17728;DHT22;8984;49.268;12.302;2023-07-20T00:48:39;19.40;99.90
17728;DHT22;8984;49.268;12.302;2023-07-20T00:51:09;19.40;99.90
17728;DHT22;8984;49.268;12.302;2023-07-20T00:53:40;19.40;99.90
17728;DHT22;8984;49.268;12.302;2023-07-20T00:56:15;19.30;99.90
17728;DHT22;8984;49.268;12.302;2023-07-20T00:58:48;19.40;99.90
17728;DHT22;8984;49.268;12.302;2023-07-20T01:01:22;19.40;99.90
17728;DHT22;8984;49.268;12.302;2023-07-20T01:03:51;19.40;99.90
17728;DHT22;8984;49.268;12.302;2023-07-20T01:06:28;19.20;99.90
17728;DHT22;8984;49.268;12.302;2023-07-20T01:12:02;19.20;99.90
17728;DHT22;8984;49.268;12.302;2023-07-20T01:14:52;19.00;99.90
17728;DHT22;8984;49.268;12.302;2023-07-20T01:17:21;19.10;99.90
17728;DHT22;8984;49.268;12.302;2023-07-20T01:19:51;19.10;99.90
17728;DHT22;8984;49.268;12.302;2023-07-20T01:22:36;19.10;99.90
17728;DHT22;8984;49.268;12.302;2023-07-20T01:25:25;19.20;99.90
17728;DHT22;8984;49.268;12.302;2023-07-20T01:31:17;19.20;99.90
17728;DHT22;8984;49.268;12.302;2023-07-20T01:33:54;19.30;99.90
17728;DHT22;8984;49.268;12.302;2023-07-20T01:36:31;19.30;99.90
17728;DHT22;8984;49.268;12.302;2023-07-20T01:39:10;19.20;99.90
17728;DHT22;8984;49.268;12.302;2023-07-20T01:41:49;19.30;99.90
17728;DHT22;8984;49.268;12.302;2023-07-20T01:44:20;19.20;99.90
17728;DHT22;8984;49.268;12.302;2023-07-20T01:46:58;19.10;99.90
17728;DHT22;8984;49.268;12.302;2023-07-20T01:49:25;19.10;99.90
17728;DHT22;8984;49.268;12.302;2023-07-20T01:51:58;19.00;99.90
17728;DHT22;8984;49.268;12.302;2023-07-20T01:54:25;18.90;99.90
17728;DHT22;8984;49.268;12.302;2023-07-20T01:56:58;19.00;99.90
17728;DHT22;8984;49.268;12.302;2023-07-20T01:59:38;18.90;99.90
17728;DHT22;8984;49.268;12.302;2023-07-20T02:02:13;18.90;99.90
17728;DHT22;8984;49.268;12.302;2023-07-20T02:04:45;18.80;99.90
17728;DHT22;8984;49.268;12.302;2023-07-20T02:07:17;18.80;99.90
17728;DHT22;8984;49.268;12.302;2023-07-20T02:09:51;18.90;99.90
17728;DHT22;8984;49.268;12.302;2023-07-20T02:12:21;18.80;99.90
17728;DHT22;8984;49.268;12.302;2023-07-20T02:14:48;18.90;99.90
17728;DHT22;8984;49.268;12.302;2023-07-20T02:17:25;18.80;99.90
17728;DHT22;8984;49.268;12.302;2023-07-20T02:19:57;18.80;99.90
17728;DHT22;8984;49.268;12.302;2023-07-20T02:22:27;18.80;99.90
17728;DHT22;8984;49.268;12.302;2023-07-20T02:25:08;18.80;99.90
17728;DHT22;8984;49.268;12.302;2023-07-20T02:27:51;18.80;99.90
17728;DHT22;8984;49.268;12.302;2023-07-20T02:30:21;18.70;99.90
17728;DHT22;8984;49.268;12.302;2023-07-20T02:32:54;18.80;99.90
17728;DHT22;8984;49.268;12.302;2023-07-20T02:35:25;18.80;99.90
17728;DHT22;8984;49.268;12.302;2023-07-20T02:37:55;18.90;99.90
17728;DHT22;8984;49.268;12.302;2023-07-20T02:40:24;18.90;99.90
17728;DHT22;8984;49.268;12.302;2023-07-20T02:42:51;18.90;99.90
17728;DHT22;8984;49.268;12.302;2023-07-20T02:45:19;19.00;99.90
17728;DHT22;8984;49.268;12.302;2023-07-20T02:47:48;18.90;99.90
17728;DHT22;8984;49.268;12.302;2023-07-20T02:50:39;18.90;99.90
17728;DHT22;8984;49.268;12.302;2023-07-20T02:53:10;18.90;99.90
17728;DHT22;8984;49.268;12.302;2023-07-20T02:55:39;18.90;99.90
17728;DHT22;8984;49.268;12.302;2023-07-20T02:58:12;18.90;99.90
17728;DHT22;8984;49.268;12.302;2023-07-20T03:00:46;18.80;99.90
17728;DHT22;8984;49.268;12.302;2023-07-20T03:03:16;18.70;99.90
17728;DHT22;8984;49.268;12.302;2023-07-20T03:05:47;18.70;99.90
17728;DHT22;8984;49.268;12.302;2023-07-20T03:08:34;18.70;99.90
17728;DHT22;8984;49.268;12.302;2023-07-20T03:11:05;18.80;99.90
17728;DHT22;8984;49.268;12.302;2023-07-20T03:13:39;18.80;99.90
17728;DHT22;8984;49.268;12.302;2023-07-20T03:16:07;18.70;99.90
17728;DHT22;8984;49.268;12.302;2023-07-20T03:18:41;18.70;99.90
17728;DHT22;8984;49.268;12.302;2023-07-20T03:21:21;18.80;99.90
17728;DHT22;8984;49.268;12.302;2023-07-20T03:23:54;18.90;99.90
17728;DHT22;8984;49.268;12.302;2023-07-20T03:26:25;18.90;99.90
17728;DHT22;8984;49.268;12.302;2023-07-20T03:28:53;18.80;99.90
17728;DHT22;8984;49.268;12.302;2023-07-20T03:31:22;18.80;99.90
17728;DHT22;8984;49.268;12.302;2023-07-20T03:33:57;18.80;99.90
17728;DHT22;8984;49.268;12.302;2023-07-20T03:36:30;19.00;99.90
17728;DHT22;8984;49.268;12.302;2023-07-20T03:39:04;18.90;99.90
17728;DHT22;8984;49.268;12.302;2023-07-20T03:41:32;18.80;99.90
17728;DHT22;8984;49.268;12.302;2023-07-20T03:43:59;18.90;99.90
17728;DHT22;8984;49.268;12.302;2023-07-20T03:46:32;18.90;99.90
17728;DHT22;8984;49.268;12.302;2023-07-20T03:49:01;18.90;99.90
17728;DHT22;8984;49.268;12.302;2023-07-20T03:51:37;18.80;99.90
17728;DHT22;8984;49.268;12.302;2023-07-20T03:54:09;18.90;99.90
17728;DHT22;8984;49.268;12.302;2023-07-20T03:56:59;19.00;99.90
17728;DHT22;8984;49.268;12.302;2023-07-20T03:59:39;19.10;99.90
17728;DHT22;8984;49.268;12.302;2023-07-20T04:02:20;18.90;99.90
17728;DHT22;8984;49.268;12.302;2023-07-20T04:04:49;19.00;99.90
17728;DHT22;8984;49.268;12.302;2023-07-20T04:07:24;18.80;99.90
17728;DHT22;8984;49.268;12.302;2023-07-20T04:10:05;18.80;99.90
17728;DHT22;8984;49.268;12.302;2023-07-20T04:12:41;18.90;99.90
17728;DHT22;8984;49.268;12.302;2023-07-20T04:15:09;19.00;99.90
17728;DHT22;8984;49.268;12.302;2023-07-20T04:17:54;18.90;99.90
17728;DHT22;8984;49.268;12.302;2023-07-20T04:20:21;18.90;99.90
17728;DHT22;8984;49.268;12.302;2023-07-20T04:22:51;19.00;99.90
17728;DHT22;8984;49.268;12.302;2023-07-20T04:25:26;19.00;99.90
17728;DHT22;8984;49.268;12.302;2023-07-20T04:27:54;18.90;99.90
17728;DHT22;8984;49.268;12.302;2023-07-20T04:30:27;19.00;99.90
17728;DHT22;8984;49.268;12.302;2023-07-20T04:32:57;19.10;99.90
17728;DHT22;8984;49.268;12.302;2023-07-20T04:35:50;19.10;99.90
17728;DHT22;8984;49.268;12.302;2023-07-20T04:38:26;19.10;99.90
17728;DHT22;8984;49.268;12.302;2023-07-20T04:41:02;18.90;99.90
17728;DHT22;8984;49.268;12.302;2023-07-20T04:43:41;19.00;99.90
17728;DHT22;8984;49.268;12.302;2023-07-20T04:46:14;18.90;99.90
17728;DHT22;8984;49.268;12.302;2023-07-20T04:48:45;19.00;99.90
17728;DHT22;8984;49.268;12.302;2023-07-20T04:51:16;19.10;99.90
17728;DHT22;8984;49.268;12.302;2023-07-20T04:53:50;19.20;99.90
17728;DHT22;8984;49.268;12.302;2023-07-20T04:56:21;19.30;99.90
17728;DHT22;8984;49.268;12.302;2023-07-20T04:58:54;19.40;99.90
17728;DHT22;8984;49.268;12.302;2023-07-20T05:01:31;19.60;99.90
17728;DHT22;8984;49.268;12.302;2023-07-20T05:04:06;19.80;99.90
17728;DHT22;8984;49.268;12.302;2023-07-20T05:06:54;20.00;99.90
17728;DHT22;8984;49.268;12.302;2023-07-20T05:09:47;20.00;99.90
17728;DHT22;8984;49.268;12.302;2023-07-20T05:12:30;20.10;99.90
17728;DHT22;8984;49.268;12.302;2023-07-20T05:15:02;20.30;99.90
17728;DHT22;8984;49.268;12.302;2023-07-20T05:17:35;20.40;99.90
17728;DHT22;8984;49.268;12.302;2023-07-20T05:20:04;20.70;99.90
17728;DHT22;8984;49.268;12.302;2023-07-20T05:22:38;20.80;99.90
17728;DHT22;8984;49.268;12.302;2023-07-20T05:25:19;21.10;99.90
17728;DHT22;8984;49.268;12.302;2023-07-20T05:27:51;21.20;99.90
17728;DHT22;8984;49.268;12.302;2023-07-20T05:30:28;21.10;99.90
17728;DHT22;8984;49.268;12.302;2023-07-20T05:33:00;21.10;99.90
17728;DHT22;8984;49.268;12.302;2023-07-20T05:35:30;21.10;99.90
17728;DHT22;8984;49.268;12.302;2023-07-20T05:38:01;21.10;99.90
17728;DHT22;8984;49.268;12.302;2023-07-20T05:40:49;21.30;99.90
17728;DHT22;8984;49.268;12.302;2023-07-20T05:43:17;21.40;99.90
17728;DHT22;8984;49.268;12.302;2023-07-20T05:45:48;21.50;99.90
17728;DHT22;8984;49.268;12.302;2023-07-20T05:48:17;22.10;99.90
17728;DHT22;8984;49.268;12.302;2023-07-20T05:50:47;22.10;99.90
17728;DHT22;8984;49.268;12.302;2023-07-20T05:53:20;22.10;99.90
17728;DHT22;8984;49.268;12.302;2023-07-20T05:55:55;22.20;99.90
17728;DHT22;8984;49.268;12.302;2023-07-20T05:58:22;22.50;99.90
17728;DHT22;8984;49.268;12.302;2023-07-20T06:00:51;22.80;99.90
17728;DHT22;8984;49.268;12.302;2023-07-20T06:03:32;23.10;99.90
17728;DHT22;8984;49.268;12.302;2023-07-20T06:06:16;23.40;99.90
17728;DHT22;8984;49.268;12.302;2023-07-20T06:09:00;23.50;99.90
17728;DHT22;8984;49.268;12.302;2023-07-20T06:11:33;23.20;99.90
17728;DHT22;8984;49.268;12.302;2023-07-20T06:14:05;23.00;99.90
17728;DHT22;8984;49.268;12.302;2023-07-20T06:16:37;23.00;99.90
17728;DHT22;8984;49.268;12.302;2023-07-20T06:19:11;23.10;99.90
17728;DHT22;8984;49.268;12.302;2023-07-20T06:21:40;23.30;99.90
17728;DHT22;8984;49.268;12.302;2023-07-20T06:24:11;23.40;99.90
17728;DHT22;8984;49.268;12.302;2023-07-20T06:26:57;23.70;99.90
17728;DHT22;8984;49.268;12.302;2023-07-20T06:29:27;23.60;99.90
17728;DHT22;8984;49.268;12.302;2023-07-20T06:31:58;23.50;99.90
17728;DHT22;8984;49.268;12.302;2023-07-20T06:34:27;23.50;99.90
17728;DHT22;8984;49.268;12.302;2023-07-20T06:36:55;23.80;99.90
17728;DHT22;8984;49.268;12.302;2023-07-20T06:39:33;24.30;99.90
17728;DHT22;8984;49.268;12.302;2023-07-20T06:42:17;24.60;99.90
17728;DHT22;8984;49.268;12.302;2023-07-20T06:44:53;24.50;99.90
17728;DHT22;8984;49.268;12.302;2023-07-20T06:47:22;24.30;99.90
17728;DHT22;8984;49.268;12.302;2023-07-20T06:49:50;24.50;99.90
17728;DHT22;8984;49.268;12.302;2023-07-20T06:52:18;24.70;99.90
17728;DHT22;8984;49.268;12.302;2023-07-20T06:54:50;24.70;99.90
17728;DHT22;8984;49.268;12.302;2023-07-20T06:57:25;24.60;99.90
17728;DHT22;8984;49.268;12.302;2023-07-20T06:59:58;24.60;99.90
17728;DHT22;8984;49.268;12.302;2023-07-20T07:02:26;24.70;99.90
17728;DHT22;8984;49.268;12.302;2023-07-20T07:05:00;24.60;99.90
17728;DHT22;8984;49.268;12.302;2023-07-20T07:07:29;24.60;99.90
17728;DHT22;8984;49.268;12.302;2023-07-20T07:10:00;24.60;99.90
17728;DHT22;8984;49.268;12.302;2023-07-20T07:12:44;24.50;99.90
17728;DHT22;8984;49.268;12.302;2023-07-20T07:15:13;24.40;99.90
17728;DHT22;8984;49.268;12.302;2023-07-20T07:17:45;24.40;99.90
17728;DHT22;8984;49.268;12.302;2023-07-20T07:20:39;24.40;99.90
17728;DHT22;8984;49.268;12.302;2023-07-20T07:23:16;24.20;99.90
17728;DHT22;8984;49.268;12.302;2023-07-20T07:25:53;24.20;99.90
17728;DHT22;8984;49.268;12.302;2023-07-20T07:28:23;24.10;99.90
17728;DHT22;8984;49.268;12.302;2023-07-20T07:30:55;24.10;99.90
17728;DHT22;8984;49.268;12.302;2023-07-20T07:33:30;24.10;99.90
17728;DHT22;8984;49.268;12.302;2023-07-20T07:36:06;24.10;99.90
17728;DHT22;8984;49.268;12.302;2023-07-20T07:38:39;24.20;99.90
17728;DHT22;8984;49.268;12.302;2023-07-20T07:41:13;24.20;99.90
17728;DHT22;8984;49.268;12.302;2023-07-20T07:44:05;24.10;99.90
17728;DHT22;8984;49.268;12.302;2023-07-20T07:46:41;24.10;99.90
17728;DHT22;8984;49.268;12.302;2023-07-20T07:49:14;24.00;99.90
17728;DHT22;8984;49.268;12.302;2023-07-20T07:51:41;24.20;99.90
17728;DHT22;8984;49.268;12.302;2023-07-20T07:54:09;24.10;99.90
17728;DHT22;8984;49.268;12.302;2023-07-20T07:56:47;24.00;99.90
17728;DHT22;8984;49.268;12.302;2023-07-20T07:59:28;24.40;99.90
17728;DHT22;8984;49.268;12.302;2023-07-20T08:02:06;24.30;99.90
17728;DHT22;8984;49.268;12.302;2023-07-20T08:04:34;24.50;99.90
17728;DHT22;8984;49.268;12.302;2023-07-20T08:07:07;24.80;99.90
17728;DHT22;8984;49.268;12.302;2023-07-20T08:09:34;24.50;99.90
17728;DHT22;8984;49.268;12.302;2023-07-20T08:12:02;24.90;99.90
17728;DHT22;8984;49.268;12.302;2023-07-20T08:14:32;25.10;99.90
17728;DHT22;8984;49.268;12.302;2023-07-20T08:17:04;25.20;99.90
17728;DHT22;8984;49.268;12.302;2023-07-20T08:19:33;25.30;99.90
17728;DHT22;8984;49.268;12.302;2023-07-20T08:22:08;25.70;99.90
17728;DHT22;8984;49.268;12.302;2023-07-20T08:24:50;25.70;99.50
17728;DHT22;8984;49.268;12.302;2023-07-20T08:27:38;25.60;99.80
17728;DHT22;8984;49.268;12.302;2023-07-20T08:30:13;25.40;99.70
17728;DHT22;8984;49.268;12.302;2023-07-20T08:32:41;25.30;99.90
17728;DHT22;8984;49.268;12.302;2023-07-20T08:35:10;25.40;99.90
17728;DHT22;8984;49.268;12.302;2023-07-20T08:37:39;25.40;99.90
17728;DHT22;8984;49.268;12.302;2023-07-20T08:40:12;25.60;99.90
17728;DHT22;8984;49.268;12.302;2023-07-20T08:42:51;25.90;99.00
17728;DHT22;8984;49.268;12.302;2023-07-20T08:45:26;25.70;99.10
17728;DHT22;8984;49.268;12.302;2023-07-20T08:48:02;25.40;99.00
17728;DHT22;8984;49.268;12.302;2023-07-20T08:50:45;25.10;99.00
17728;DHT22;8984;49.268;12.302;2023-07-20T08:53:21;25.10;99.50
17728;DHT22;8984;49.268;12.302;2023-07-20T08:55:51;25.00;99.10
17728;DHT22;8984;49.268;12.302;2023-07-20T08:58:19;24.60;99.70
17728;DHT22;8984;49.268;12.302;2023-07-20T09:00:54;24.40;99.90
17728;DHT22;8984;49.268;12.302;2023-07-20T09:03:27;24.30;99.80
17728;DHT22;8984;49.268;12.302;2023-07-20T09:06:00;24.50;99.60
17728;DHT22;8984;49.268;12.302;2023-07-20T09:08:28;24.70;99.20
17728;DHT22;8984;49.268;12.302;2023-07-20T09:10:58;24.70;98.50
17728;DHT22;8984;49.268;12.302;2023-07-20T09:13:31;24.90;97.40
17728;DHT22;8984;49.268;12.302;2023-07-20T09:16:02;25.00;96.70
17728;DHT22;8984;49.268;12.302;2023-07-20T09:18:38;25.50;97.20
17728;DHT22;8984;49.268;12.302;2023-07-20T09:21:11;25.40;96.20
17728;DHT22;8984;49.268;12.302;2023-07-20T09:23:42;25.40;94.20
17728;DHT22;8984;49.268;12.302;2023-07-20T09:26:13;25.40;93.50
17728;DHT22;8984;49.268;12.302;2023-07-20T09:28:49;25.60;93.40
17728;DHT22;8984;49.268;12.302;2023-07-20T09:31:24;25.80;94.00
17728;DHT22;8984;49.268;12.302;2023-07-20T09:34:03;26.20;93.60
17728;DHT22;8984;49.268;12.302;2023-07-20T09:36:51;26.00;93.20
17728;DHT22;8984;49.268;12.302;2023-07-20T09:39:20;26.20;94.00
17728;DHT22;8984;49.268;12.302;2023-07-20T09:42:00;25.70;92.70
17728;DHT22;8984;49.268;12.302;2023-07-20T09:44:32;25.90;93.00
17728;DHT22;8984;49.268;12.302;2023-07-20T09:47:04;26.00;92.70
17728;DHT22;8984;49.268;12.302;2023-07-20T09:49:33;26.30;91.70
17728;DHT22;8984;49.268;12.302;2023-07-20T09:52:13;26.50;91.80
17728;DHT22;8984;49.268;12.302;2023-07-20T09:54:47;26.60;91.70
17728;DHT22;8984;49.268;12.302;2023-07-20T09:57:18;27.00;92.30
17728;DHT22;8984;49.268;12.302;2023-07-20T09:59:48;27.20;92.00
17728;DHT22;8984;49.268;12.302;2023-07-20T10:02:25;27.20;91.20
17728;DHT22;8984;49.268;12.302;2023-07-20T10:05:02;27.20;91.30
17728;DHT22;8984;49.268;12.302;2023-07-20T10:07:31;27.10;90.80
17728;DHT22;8984;49.268;12.302;2023-07-20T10:10:01;26.90;91.60
17728;DHT22;8984;49.268;12.302;2023-07-20T10:12:36;26.70;91.60
17728;DHT22;8984;49.268;12.302;2023-07-20T10:15:15;26.60;91.20
17728;DHT22;8984;49.268;12.302;2023-07-20T10:18:09;26.80;90.60
17728;DHT22;8984;49.268;12.302;2023-07-20T10:20:52;26.80;90.20
17728;DHT22;8984;49.268;12.302;2023-07-20T10:23:27;27.00;90.80
17728;DHT22;8984;49.268;12.302;2023-07-20T10:25:58;27.10;90.60
17728;DHT22;8984;49.268;12.302;2023-07-20T10:28:32;27.00;90.70
17728;DHT22;8984;49.268;12.302;2023-07-20T10:31:12;27.30;90.40
17728;DHT22;8984;49.268;12.302;2023-07-20T10:34:04;27.60;89.20
17728;DHT22;8984;49.268;12.302;2023-07-20T10:36:44;27.60;87.90
17728;DHT22;8984;49.268;12.302;2023-07-20T10:39:31;27.40;86.90
17728;DHT22;8984;49.268;12.302;2023-07-20T10:42:07;27.50;86.40
17728;DHT22;8984;49.268;12.302;2023-07-20T10:44:44;27.60;85.70
17728;DHT22;8984;49.268;12.302;2023-07-20T10:47:15;27.90;85.70
17728;DHT22;8984;49.268;12.302;2023-07-20T10:50:21;27.80;84.00
17728;DHT22;8984;49.268;12.302;2023-07-20T10:53:04;28.30;85.20
17728;DHT22;8984;49.268;12.302;2023-07-20T10:55:39;28.20;87.40
17728;DHT22;8984;49.268;12.302;2023-07-20T10:58:11;27.80;86.80
17728;DHT22;8984;49.268;12.302;2023-07-20T11:01:12;27.90;86.70
17728;DHT22;8984;49.268;12.302;2023-07-20T11:03:50;28.00;86.80
17728;DHT22;8984;49.268;12.302;2023-07-20T11:06:34;28.00;84.70
17728;DHT22;8984;49.268;12.302;2023-07-20T11:09:12;28.40;85.00
17728;DHT22;8984;49.268;12.302;2023-07-20T11:11:43;28.00;82.40
17728;DHT22;8984;49.268;12.302;2023-07-20T11:14:26;28.00;82.10
17728;DHT22;8984;49.268;12.302;2023-07-20T11:17:11;27.80;83.80
17728;DHT22;8984;49.268;12.302;2023-07-20T11:19:42;27.70;84.60
17728;DHT22;8984;49.268;12.302;2023-07-20T11:22:27;27.50;86.50
17728;DHT22;8984;49.268;12.302;2023-07-20T11:25:06;27.90;87.30
17728;DHT22;8984;49.268;12.302;2023-07-20T11:27:48;27.70;78.30
17728;DHT22;8984;49.268;12.302;2023-07-20T11:30:19;28.00;80.30
17728;DHT22;8984;49.268;12.302;2023-07-20T11:32:49;28.20;78.70
17728;DHT22;8984;49.268;12.302;2023-07-20T11:35:18;28.40;78.80
17728;DHT22;8984;49.268;12.302;2023-07-20T11:37:50;27.90;80.00
17728;DHT22;8984;49.268;12.302;2023-07-20T11:40:20;28.10;81.90
17728;DHT22;8984;49.268;12.302;2023-07-20T11:42:51;28.60;82.20
17728;DHT22;8984;49.268;12.302;2023-07-20T11:45:33;28.70;80.50
17728;DHT22;8984;49.268;12.302;2023-07-20T11:48:05;28.60;82.60
17728;DHT22;8984;49.268;12.302;2023-07-20T11:50:59;28.40;81.80
17728;DHT22;8984;49.268;12.302;2023-07-20T11:53:56;28.30;81.00
17728;DHT22;8984;49.268;12.302;2023-07-20T11:56:25;28.20;81.60
17728;DHT22;8984;49.268;12.302;2023-07-20T11:58:55;28.10;83.50
17728;DHT22;8984;49.268;12.302;2023-07-20T12:01:29;27.80;82.00
17728;DHT22;8984;49.268;12.302;2023-07-20T12:04:00;28.00;81.70
17728;DHT22;8984;49.268;12.302;2023-07-20T12:06:32;28.20;81.20
17728;DHT22;8984;49.268;12.302;2023-07-20T12:09:14;28.40;81.10
17728;DHT22;8984;49.268;12.302;2023-07-20T12:11:43;28.50;78.80
17728;DHT22;8984;49.268;12.302;2023-07-20T12:14:13;28.30;77.90
17728;DHT22;8984;49.268;12.302;2023-07-20T12:16:56;28.40;79.50
17728;DHT22;8984;49.268;12.302;2023-07-20T12:19:25;28.70;76.30
17728;DHT22;8984;49.268;12.302;2023-07-20T12:22:03;28.90;76.70
17728;DHT22;8984;49.268;12.302;2023-07-20T12:24:52;28.80;75.10
17728;DHT22;8984;49.268;12.302;2023-07-20T12:27:20;28.50;74.80
17728;DHT22;8984;49.268;12.302;2023-07-20T12:29:50;28.10;74.70
17728;DHT22;8984;49.268;12.302;2023-07-20T12:32:21;28.30;75.40
17728;DHT22;8984;49.268;12.302;2023-07-20T12:34:50;27.60;73.80
17728;DHT22;8984;49.268;12.302;2023-07-20T12:37:18;27.90;76.20
17728;DHT22;8984;49.268;12.302;2023-07-20T12:40:00;27.80;75.70
17728;DHT22;8984;49.268;12.302;2023-07-20T12:42:34;28.10;76.70
17728;DHT22;8984;49.268;12.302;2023-07-20T12:45:12;28.20;75.30
17728;DHT22;8984;49.268;12.302;2023-07-20T12:47:45;28.30;74.50
17728;DHT22;8984;49.268;12.302;2023-07-20T12:50:15;28.60;74.90
17728;DHT22;8984;49.268;12.302;2023-07-20T12:52:44;28.80;76.70
17728;DHT22;8984;49.268;12.302;2023-07-20T12:55:17;29.00;75.00
17728;DHT22;8984;49.268;12.302;2023-07-20T12:57:49;29.10;75.50
17728;DHT22;8984;49.268;12.302;2023-07-20T13:00:37;29.20;75.30
17728;DHT22;8984;49.268;12.302;2023-07-20T13:03:10;28.70;74.40
17728;DHT22;8984;49.268;12.302;2023-07-20T13:05:54;28.30;76.30
17728;DHT22;8984;49.268;12.302;2023-07-20T13:08:22;27.90;76.90
17728;DHT22;8984;49.268;12.302;2023-07-20T13:10:54;27.90;78.20
17728;DHT22;8984;49.268;12.302;2023-07-20T13:13:26;28.10;78.10
17728;DHT22;8984;49.268;12.302;2023-07-20T13:16:01;28.00;78.20
17728;DHT22;8984;49.268;12.302;2023-07-20T13:18:30;28.00;76.10
17728;DHT22;8984;49.268;12.302;2023-07-20T13:21:03;27.90;76.50
17728;DHT22;8984;49.268;12.302;2023-07-20T13:23:43;28.30;75.70
17728;DHT22;8984;49.268;12.302;2023-07-20T13:26:13;28.80;74.80
17728;DHT22;8984;49.268;12.302;2023-07-20T13:28:50;29.10;75.40
17728;DHT22;8984;49.268;12.302;2023-07-20T13:31:28;29.50;73.90
17728;DHT22;8984;49.268;12.302;2023-07-20T13:33:57;29.30;72.20
17728;DHT22;8984;49.268;12.302;2023-07-20T13:36:29;29.10;71.50
17728;DHT22;8984;49.268;12.302;2023-07-20T13:38:58;29.40;72.40
17728;DHT22;8984;49.268;12.302;2023-07-20T13:41:30;29.50;72.60
17728;DHT22;8984;49.268;12.302;2023-07-20T13:44:00;29.50;72.80
17728;DHT22;8984;49.268;12.302;2023-07-20T13:46:28;29.70;70.80
17728;DHT22;8984;49.268;12.302;2023-07-20T13:48:58;29.60;70.70
17728;DHT22;8984;49.268;12.302;2023-07-20T13:51:32;29.50;70.20
17728;DHT22;8984;49.268;12.302;2023-07-20T13:54:00;29.30;70.60
17728;DHT22;8984;49.268;12.302;2023-07-20T13:56:31;29.40;71.60
17728;DHT22;8984;49.268;12.302;2023-07-20T13:58:59;29.50;70.30
17728;DHT22;8984;49.268;12.302;2023-07-20T14:01:29;29.70;71.40
17728;DHT22;8984;49.268;12.302;2023-07-20T14:04:01;29.90;70.90
17728;DHT22;8984;49.268;12.302;2023-07-20T14:06:33;30.10;70.20
17728;DHT22;8984;49.268;12.302;2023-07-20T14:09:05;30.00;69.60
17728;DHT22;8984;49.268;12.302;2023-07-20T14:11:51;29.60;70.70
17728;DHT22;8984;49.268;12.302;2023-07-20T14:14:23;28.90;69.70
17728;DHT22;8984;49.268;12.302;2023-07-20T14:16:58;28.40;69.90
17728;DHT22;8984;49.268;12.302;2023-07-20T14:19:34;28.30;70.30
17728;DHT22;8984;49.268;12.302;2023-07-20T14:22:03;28.50;71.10
17728;DHT22;8984;49.268;12.302;2023-07-20T14:24:30;28.70;70.10
17728;DHT22;8984;49.268;12.302;2023-07-20T14:27:13;29.10;70.70
17728;DHT22;8984;49.268;12.302;2023-07-20T14:29:42;29.50;70.40
17728;DHT22;8984;49.268;12.302;2023-07-20T14:32:14;29.40;68.90
17728;DHT22;8984;49.268;12.302;2023-07-20T14:34:45;29.40;69.80
17728;DHT22;8984;49.268;12.302;2023-07-20T14:37:21;28.90;68.20
17728;DHT22;8984;49.268;12.302;2023-07-20T14:39:52;28.80;68.50
17728;DHT22;8984;49.268;12.302;2023-07-20T14:42:25;28.90;67.20
17728;DHT22;8984;49.268;12.302;2023-07-20T14:44:53;29.00;66.10
17728;DHT22;8984;49.268;12.302;2023-07-20T14:47:25;29.10;67.80
17728;DHT22;8984;49.268;12.302;2023-07-20T14:49:54;29.30;67.70
17728;DHT22;8984;49.268;12.302;2023-07-20T14:52:24;29.50;65.80
17728;DHT22;8984;49.268;12.302;2023-07-20T14:54:52;29.00;65.70
17728;DHT22;8984;49.268;12.302;2023-07-20T14:57:26;29.10;66.10
17728;DHT22;8984;49.268;12.302;2023-07-20T15:00:07;28.80;66.80
17728;DHT22;8984;49.268;12.302;2023-07-20T15:02:37;28.70;68.20
17728;DHT22;8984;49.268;12.302;2023-07-20T15:05:09;28.80;68.10
17728;DHT22;8984;49.268;12.302;2023-07-20T15:07:37;28.90;65.60
17728;DHT22;8984;49.268;12.302;2023-07-20T15:10:06;29.20;66.30
17728;DHT22;8984;49.268;12.302;2023-07-20T15:12:41;29.50;65.10
17728;DHT22;8984;49.268;12.302;2023-07-20T15:15:09;29.90;65.70
17728;DHT22;8984;49.268;12.302;2023-07-20T15:17:39;30.10;66.00
17728;DHT22;8984;49.268;12.302;2023-07-20T15:20:10;30.20;64.30
17728;DHT22;8984;49.268;12.302;2023-07-20T15:22:46;30.10;63.30
17728;DHT22;8984;49.268;12.302;2023-07-20T15:25:21;30.10;64.30
17728;DHT22;8984;49.268;12.302;2023-07-20T15:27:53;29.60;62.70
17728;DHT22;8984;49.268;12.302;2023-07-20T15:30:21;29.70;65.00
17728;DHT22;8984;49.268;12.302;2023-07-20T15:32:49;29.90;64.80
17728;DHT22;8984;49.268;12.302;2023-07-20T15:35:22;30.00;66.30
17728;DHT22;8984;49.268;12.302;2023-07-20T15:37:53;30.10;62.80
17728;DHT22;8984;49.268;12.302;2023-07-20T15:40:35;30.00;64.40
17728;DHT22;8984;49.268;12.302;2023-07-20T15:43:14;29.70;63.30
17728;DHT22;8984;49.268;12.302;2023-07-20T15:45:47;29.60;63.90
17728;DHT22;8984;49.268;12.302;2023-07-20T15:48:25;29.50;64.70
17728;DHT22;8984;49.268;12.302;2023-07-20T15:51:01;28.80;63.00
17728;DHT22;8984;49.268;12.302;2023-07-20T15:53:31;29.10;64.30
17728;DHT22;8984;49.268;12.302;2023-07-20T15:56:04;29.40;65.60
17728;DHT22;8984;49.268;12.302;2023-07-20T15:58:37;29.60;64.10
17728;DHT22;8984;49.268;12.302;2023-07-20T16:01:11;29.80;63.90
17728;DHT22;8984;49.268;12.302;2023-07-20T16:03:40;30.00;63.30
17728;DHT22;8984;49.268;12.302;2023-07-20T16:06:08;29.70;63.30
17728;DHT22;8984;49.268;12.302;2023-07-20T16:08:36;29.70;62.40
17728;DHT22;8984;49.268;12.302;2023-07-20T16:11:04;29.40;63.10
17728;DHT22;8984;49.268;12.302;2023-07-20T16:13:33;29.30;63.50
17728;DHT22;8984;49.268;12.302;2023-07-20T16:16:03;29.20;64.00
17728;DHT22;8984;49.268;12.302;2023-07-20T16:18:31;28.80;63.10
17728;DHT22;8984;49.268;12.302;2023-07-20T16:21:00;28.70;63.60
17728;DHT22;8984;49.268;12.302;2023-07-20T16:23:29;28.70;63.30